U.S. Weather Extremes for
Thursday, December 13, 2018

High Temperature


86°F at Brownsville/Intl, TX
86°F at Mcallen/Miller Intl, TX

Low Temperature


-23°F at Clayton Lake, ME

High Precipitation


4.05in at Little Rock, AR


Data for lower 48 states and courtesy of
NWS-CPC

North Georgia & Southern Appalachians METAR Reports

KDZJ - Blairsville, Georgia, USA
Distance from station: NNW 11mi, 18km
Updated: Fri, 14-Dec-2018 7:15pm CST
Overcast
Overcast
 Wind from calm
Wind:
Calm
Temperature: 54°F , 12°C
Dew Point: 50°F , 10°C
Humidity: 88%
Barometer: 29.96 inHg , 1014.6 hPa
Clouds: Overcast
Visibility: 10 miles , 16 km
Cloud details: Partly Cloudy 2400 ft
Mostly Cloudy 5000 ft
Overcast 9500 ft
2018/12/15 01:15 KDZJ 150115Z AUTO 00000KT 10SM SCT024 BKN050 OVC095 12/10 A2996 RMK AO2 T01170103
KAJR - Cornelia, Georgia, USA
Distance from station: SE 25mi, 41km
Updated: Fri, 14-Dec-2018 7:15pm CST
Rain, Overcast
Rain, Overcast
 Wind from E
Wind:
E 6 mph 9 km/h
Temperature: 48°F , 9°C
Wind Chill: 45°F , 7°C
Dew Point: 48°F , 9°C
Humidity: 100%
Barometer: 29.98 inHg , 1015.2 hPa
Summary: Rain
Clouds: Overcast
Visibility: 5 miles , 8 km
Cloud details: Overcast 600 ft
2018/12/15 01:15 KAJR 150115Z AUTO 09005KT 5SM RA OVC006 09/09 A2998 RMK AO2 T00910088
 
KGVL - Gainesville, Georgia, USA
Distance from station: S 31mi, 50km
Updated: Fri, 14-Dec-2018 6:53pm CST
Rain, Mist, Overcast
Rain, Mist, Overcast
 Wind from E
Wind:
E 12 mph 19 km/h
Temperature: 48°F , 9°C
Wind Chill: 43°F , 6°C
Dew Point: 48°F , 9°C
Humidity: 100%
Barometer: 29.98 inHg , 1015.2 hPa
Summary: Rain, Mist
Clouds: Overcast
Visibility: 4 miles , 6 km
Cloud details: Overcast 400 ft
2018/12/15 00:53 KGVL 150053Z AUTO 10010KT 4SM RA BR OVC004 09/09 A2998 RMK AO2 SLP151 P0005 T00890089
KRHP - Andrews, North Carolina, USA
Distance from station: N 33mi, 53km
Updated: Fri, 14-Dec-2018 7:00pm CST
Overcast
Overcast
 Wind from calm
Wind:
Calm
Temperature: 54°F , 12°C
Dew Point: 54°F , 12°C
Humidity: 100%
Barometer: 29.95 inHg , 1014.2 hPa
Clouds: Overcast
Visibility: 10 miles , 16 km
Cloud details: Overcast 1800 ft
2018/12/15 01:00 KRHP 150100Z AUTO 00000KT 10SM OVC018 12/12 A2995 RMK AO2 T01230118
 
KJZP - Jasper, Georgia, USA
Distance from station: WSW 35mi, 57km
Updated: Mon, 03-Dec-2018 8:15am CST
NOT Current
Partly Cloudy
Partly Cloudy
 Wind from N
Wind:
N 10 mph 17 km/h
Temperature: 48°F , 9°C
Wind Chill: 44°F , 7°C
Dew Point: 36°F , 2°C
Humidity: 62%
Barometer: 29.97 inHg , 1014.9 hPa
Clouds: Partly Cloudy
Visibility: 10 miles , 16 km
Cloud details: Partly Cloudy 12000 ft
2018/12/03 14:15 KJZP 031415Z AUTO 36009KT 10SM SCT120 09/02 A2997 RMK AO2 T00920023 PNO
KTOC - Toccoa, Georgia, USA
Distance from station: E 36mi, 58km
Updated: Fri, 14-Dec-2018 7:15pm CST
Rain, Overcast
Rain, Overcast
 Wind from E
Wind:
E 5 mph 7 km/h
Temperature: 50°F , 10°C
Wind Chill: 48°F , 9°C
Dew Point: 48°F , 9°C
Humidity: 94%
Barometer: 30.00 inHg , 1015.9 hPa
Summary: Rain
Clouds: Overcast
Visibility: 5 miles , 8 km
Cloud details: Mostly Cloudy 300 ft
Mostly Cloudy 700 ft
Overcast 1500 ft
2018/12/15 01:15 KTOC 150115Z AUTO 08004KT 5SM RA BKN003 BKN007 OVC015 10/09 A3000 RMK AO2 T00970092
 
KCNI - Canton/Cherokee, Georgia, USA
Distance from station: SW 39mi, 63km
Updated: Fri, 14-Dec-2018 7:15pm CST
Light rain, Overcast
Light rain, Overcast
 Wind from E
Wind:
E 7 mph 11 km/h
Temperature: 52°F , 11°C
Dew Point: 50°F , 10°C
Humidity: 94%
Barometer: 29.97 inHg , 1014.9 hPa
Summary: Light Rain
Clouds: Overcast
Visibility: 4 miles , 6 km
Cloud details: Overcast 400 ft
2018/12/15 01:15 KCNI 150115Z AUTO 08006KT 4SM -RA OVC004 11/10 A2997 RMK AO2
KJCA - Jefferson, Georgia, USA
Distance from station: SSE 41mi, 67km
Updated: Fri, 14-Dec-2018 7:15pm CST
Overcast
Overcast
 Wind from NE
Wind:
NE 6 mph 9 km/h
Temperature: 46°F , 8°C
Wind Chill: 43°F , 6°C
Dew Point: 46°F , 8°C
Humidity: 100%
Barometer: 29.99 inHg , 1015.6 hPa
Clouds: Overcast
Visibility: 2 1/2 miles , 2 km
Cloud details: Overcast 400 ft
2018/12/15 01:15 KJCA 150115Z AUTO 04005KT 2 1/2SM OVC004 08/08 A2999 RMK AO2 P0013 PWINO T00810077
 
K1A5 - Macon/Franklin, North Carolina, USA
Distance from station: NE 45mi, 73km
Updated: Fri, 14-Dec-2018 7:00pm CST
Mist, Overcast
Mist, Overcast
 Wind from NE
Wind:
NE 5 mph 7 km/h
Temperature: 50°F , 10°C
Wind Chill: 48°F , 9°C
Dew Point: 50°F , 10°C
Humidity: 100%
Barometer: 29.99 inHg , 1015.6 hPa
Summary: Mist
Clouds: Overcast
Visibility: 5 miles , 8 km
Cloud details: Mostly Cloudy 2000 ft
Overcast 3600 ft
2018/12/15 01:00 K1A5 150100Z AUTO 05004KT 5SM BR BKN020 OVC036 10/10 A2999 RMK AO2 T01010101
KLZU - Lawrenceville, Georgia, USA
Distance from station: S 50mi, 81km
Updated: Fri, 14-Dec-2018 6:56pm CST
Rain, Mist, Overcast
Rain, Mist, Overcast
 Wind from ENE
Wind:
ENE 7 mph 11 km/h
Temperature: 46°F , 8°C
Wind Chill: 42°F , 6°C
Dew Point: 46°F , 8°C
Humidity: 100%
Barometer: 29.97 inHg , 1014.9 hPa
Summary: Rain, Mist
Clouds: Overcast
Visibility: 4 miles , 6 km
Cloud details: Overcast 300 ft
2018/12/15 00:56 KLZU 150056Z 06006KT 4SM RA BR OVC003 08/08 A2997 RMK AO2 SLP161 P0043 T00830083
 
K18A - Canon/Franklin, Georgia, USA
Distance from station: ESE 51mi, 82km
Updated: Thu, 15-Nov-2018 11:35am CST
NOT Current
Overcast
Overcast
 Wind from calm
Wind:
Calm
Temperature: 43°F , 6°C
Dew Point: 39°F , 4°C
Humidity: 87%
Barometer: 30.03 inHg , 1016.9 hPa
Clouds: Overcast
Visibility: 10 miles , 16 km
Cloud details: Mostly Cloudy 1400 ft
Overcast 2000 ft
2018/11/15 17:35 K18A 151735Z AUTO 00000KT 10SM BKN014 OVC020 06/04 A3003 RMK AO2 T00620037
KWDR - Winder/Barrow, Georgia, USA
Distance from station: SSE 52mi, 84km
Updated: Fri, 14-Dec-2018 7:17pm CST
Heavy rain, Overcast
Heavy rain, Overcast
 Wind from NNE
Wind:
NNE 5 mph 7 km/h
Temperature: 48°F , 9°C
Wind Chill: 46°F , 8°C
Dew Point: 48°F , 9°C
Humidity: 100%
Barometer: 30.00 inHg , 1015.9 hPa
Summary: Heavy Rain
Clouds: Overcast
Visibility: 3 miles , 5 km
Cloud details: Overcast 400 ft
2018/12/15 01:17 KWDR 150117Z AUTO 02004KT 3SM +RA OVC004 09/09 A3000 RMK AO1
 
KDNN - Dalton, Georgia, USA
Distance from station: W 54mi, 87km
Updated: Fri, 14-Dec-2018 7:15pm CST
Mist, Overcast
Mist, Overcast
 Wind from calm
Wind:
Calm
Temperature: 52°F , 11°C
Dew Point: 52°F , 11°C
Humidity: 100%
Barometer: 29.92 inHg , 1013.2 hPa
Summary: Mist
Clouds: Overcast
Visibility: 4 miles , 6 km
Cloud details: Mostly Cloudy 200 ft
Overcast 2200 ft
2018/12/15 01:15 KDNN 150115Z AUTO 00000KT 4SM BR BKN002 OVC022 11/11 A2992 RMK AO2
K24A - Sylva, North Carolina, USA
Distance from station: NE 58mi, 93km
Updated: Fri, 14-Dec-2018 7:00pm CST
Mist, Overcast
Mist, Overcast
 Wind from ESE
Wind:
ESE 3 mph 6 km/h
Temperature: 46°F , 8°C
Dew Point: 46°F , 8°C
Humidity: 100%
Barometer: 30.01 inHg , 1016.3 hPa
Summary: Mist
Clouds: Overcast
Visibility: 10 miles , 16 km
Cloud details: Overcast 1700 ft
2018/12/15 01:00 K24A 150100Z AUTO 12003KT 10SM BR OVC017 08/08 A3001 RMK AO2 T00840080
 
KCEU - Clemson, South Carolina, USA
Distance from station: E 59mi, 95km
Updated: Fri, 14-Dec-2018 7:09pm CST
Light rain, Mist, Overcast
Light rain, Mist, Overcast
 Wind from NE
Wind:
NE 7 mph 11 km/h
Temperature: 46°F , 8°C
Wind Chill: 42°F , 6°C
Dew Point: 46°F , 8°C
Humidity: 100%
Barometer: 30.01 inHg , 1016.3 hPa
Summary: Light rain, Mist
Clouds: Overcast
Visibility: 3 miles , 5 km
Cloud details: Overcast 400 ft
2018/12/15 01:09 KCEU 150109Z AUTO 04006KT 3SM -RA BR OVC004 08/08 A3001 RMK AO2 CIG 003V009 P0002 T00830078
KMMI - Athens/Mcminn, Tennessee, USA
Distance from station: NW 60mi, 97km
Updated: Fri, 14-Dec-2018 7:15pm CST
Overcast
Overcast
 Wind from ENE
Wind:
ENE 5 mph 7 km/h
Temperature: 52°F , 11°C
Dew Point: 50°F , 10°C
Humidity: 94%
Barometer: 29.93 inHg , 1013.5 hPa
Clouds: Overcast
Visibility: 10 miles , 16 km
Cloud details: Mostly Cloudy 3500 ft
Overcast 4000 ft
2018/12/15 01:15 KMMI 150115Z AUTO 06004KT 10SM BKN035 OVC040 11/10 A2993 RMK A01
 
KCZL - Calhoun, Georgia, USA
Distance from station: WSW 61mi, 97km
Updated: Fri, 14-Dec-2018 7:15pm CST
Overcast
Overcast
 Wind from SE
Wind:
SE 3 mph 6 km/h
Temperature: 54°F , 12°C
Dew Point: 54°F , 12°C
Humidity: 100%
Barometer: 29.94 inHg , 1013.9 hPa
Clouds: Overcast
Visibility: 10 miles , 16 km
Cloud details: Mostly Cloudy 1400 ft
Mostly Cloudy 2100 ft
Overcast 2600 ft
2018/12/15 01:15 KCZL 150115Z AUTO 14003KT 10SM BKN014 BKN021 OVC026 12/12 A2994 RMK AO2
KPDK - Peachtree/Dekalb, Georgia, USA
Distance from station: SSW 61mi, 98km
Updated: Fri, 14-Dec-2018 7:02pm CST
Light rain, Mist, Overcast
Light rain, Mist, Overcast
 Wind from varies
Wind:
varies 3 mph 6 km/h
Temperature: 48°F , 9°C
Dew Point: 46°F , 8°C
Humidity: 94%
Barometer: 29.96 inHg , 1014.6 hPa
Summary: Light rain, Mist
Clouds: Overcast
Visibility: 4 miles , 6 km
Cloud details: Overcast 500 ft
2018/12/15 01:02 KPDK 150102Z VRB03KT 4SM -RA BR OVC005 09/08 A2996 RMK AO2 P0001 T00890083
 
KRZR - Cleveland Reg., Tennessee, USA
Distance from station: NW 61mi, 98km
Updated: Fri, 14-Dec-2018 7:15pm CST
Overcast
Overcast
 Wind from calm
Wind:
Calm
Temperature: 52°F , 11°C
Dew Point: 52°F , 11°C
Humidity: 100%
Barometer: 29.89 inHg , 1012.2 hPa
Clouds: Overcast
Visibility: 10 miles , 16 km
Cloud details: Mostly Cloudy 1600 ft
Overcast 2600 ft
2018/12/15 01:15 KRZR 150115Z AUTO 00000KT 10SM BKN016 OVC026 11/11 A2989 RMK A01
KRYY - Marietta Mccolum, Georgia, USA
Distance from station: SW 62mi, 99km
Updated: Fri, 14-Dec-2018 6:48pm CST
Light rain, Overcast
Light rain, Overcast
 Wind from E
Wind:
E 9 mph 15 km/h
Temperature: 48°F , 9°C
Wind Chill: 44°F , 7°C
Dew Point: 48°F , 9°C
Humidity: 100%
Barometer: 29.93 inHg , 1013.5 hPa
Summary: Light Rain
Clouds: Overcast
Visibility: 10 miles , 16 km
Cloud details: Overcast 500 ft
2018/12/15 00:48 KRYY 150048Z 09008KT 10SM -RA OVC005 09/09 A2993 RMK AO2 SLP858 P0000 T00940089

Metar display script from Saratoga-Weather.org